Time;durP1;ratioP1;P1;durP2;ratioP2;P2;SDS_P1;SDS_P2;PMS_P1;PMS_P2;Temp;Humidity;BMP_temperature;BMP_pressure;BME280_temperature;BME280_humidity;BME280_pressure;Samples;Min_cycle;Max_cycle;Signal;HPM_P1;HPM_P2
2022/07/09 00:00:33;;;;;;;13.43;6.60;;;;;;;;;;5082332;28;20032;-65
2022/07/09 00:02:59;;;;;;;10.00;5.70;;;;;;;;;;5091760;28;20044;-65
2022/07/09 00:05:25;;;;;;;10.82;6.07;;;;;;;;;;5081064;28;20040;-65
2022/07/09 00:07:51;;;;;;;13.68;5.72;;;;;;;;;;5087208;28;20047;-65
2022/07/09 00:10:17;;;;;;;12.25;6.20;;;;;;;;;;5088989;28;20042;-65
2022/07/09 00:12:43;;;;;;;13.02;6.55;;;;;;;;;;5087423;28;20077;-65
2022/07/09 00:15:10;;;;;;;11.40;6.03;;;;;;;;;;5090303;28;20443;-65
2022/07/09 00:17:36;;;;;;;13.75;6.57;;;;;;;;;;5087757;28;20031;-65
2022/07/09 00:20:04;;;;;;;10.77;5.82;;;;;;;;;;5083939;28;20039;-65
2022/07/09 00:22:31;;;;;;;12.27;6.22;;;;;;;;;;5079333;28;20062;-65
2022/07/09 00:24:57;;;;;;;15.18;6.65;;;;;;;;;;5085603;28;20044;-65
2022/07/09 00:27:23;;;;;;;11.43;5.80;;;;;;;;;;5089833;28;20040;-65
2022/07/09 00:29:49;;;;;;;14.95;6.13;;;;;;;;;;5086476;28;20033;-65
2022/07/09 00:32:16;;;;;;;13.85;6.60;;;;;;;;;;5082506;28;20131;-65
2022/07/09 00:34:42;;;;;;;11.35;6.57;;;;;;;;;;5087243;28;20040;-65
2022/07/09 00:37:08;;;;;;;15.60;6.25;;;;;;;;;;5090442;28;20431;-65
2022/07/09 00:39:34;;;;;;;11.77;6.43;;;;;;;;;;5089070;28;20394;-65
2022/07/09 00:42:07;;;;;;;12.88;6.40;;;;;;;;;;5087415;28;20093;-65
2022/07/09 00:44:33;;;;;;;14.18;6.72;;;;;;;;;;5089009;28;20489;-65
2022/07/09 00:46:59;;;;;;;12.77;5.85;;;;;;;;;;5084324;28;20481;-65
2022/07/09 00:49:28;;;;;;;14.48;6.57;;;;;;;;;;5084276;28;20036;-65
2022/07/09 00:51:54;;;;;;;15.73;6.93;;;;;;;;;;5088258;28;20032;-65
2022/07/09 00:54:20;;;;;;;12.57;5.95;;;;;;;;;;5085768;28;20068;-65
2022/07/09 00:56:46;;;;;;;11.55;6.28;;;;;;;;;;5085644;28;20073;-65
2022/07/09 00:59:13;;;;;;;9.82;6.35;;;;;;;;;;5089777;28;20401;-65
2022/07/09 01:01:39;;;;;;;13.10;6.38;;;;;;;;;;5071561;28;20079;-65
2022/07/09 01:04:06;;;;;;;10.02;6.30;;;;;;;;;;5073059;28;20123;-65
2022/07/09 01:06:34;;;;;;;9.45;6.25;;;;;;;;;;5089216;28;20039;-65
2022/07/09 01:09:01;;;;;;;11.10;5.78;;;;;;;;;;5081690;28;20149;-65
2022/07/09 01:11:27;;;;;;;12.48;6.45;;;;;;;;;;5091640;28;20040;-65
2022/07/09 01:13:53;;;;;;;11.55;6.68;;;;;;;;;;5080586;28;20044;-65
2022/07/09 01:16:20;;;;;;;13.10;6.82;;;;;;;;;;5080212;28;20040;-65
2022/07/09 01:18:48;;;;;;;12.10;6.43;;;;;;;;;;5082106;28;20056;-65
2022/07/09 01:21:14;;;;;;;10.93;6.30;;;;;;;;;;5085384;28;20452;-65
2022/07/09 01:23:41;;;;;;;11.73;6.15;;;;;;;;;;5079805;28;20090;-65
2022/07/09 01:26:07;;;;;;;12.05;6.32;;;;;;;;;;5090675;28;20036;-64
2022/07/09 01:28:33;;;;;;;10.75;6.15;;;;;;;;;;5085421;28;20067;-65
2022/07/09 01:30:59;;;;;;;14.02;6.30;;;;;;;;;;5090236;28;20042;-65
2022/07/09 01:33:26;;;;;;;9.23;6.00;;;;;;;;;;5080742;28;20504;-64
2022/07/09 01:35:52;;;;;;;9.63;6.10;;;;;;;;;;5084484;28;20039;-65
2022/07/09 01:38:18;;;;;;;9.57;6.20;;;;;;;;;;5082135;28;20032;-65
2022/07/09 01:40:44;;;;;;;10.77;6.45;;;;;;;;;;5089938;28;20032;-65
2022/07/09 01:43:10;;;;;;;11.27;6.05;;;;;;;;;;5090544;28;20036;-65
2022/07/09 01:45:36;;;;;;;11.45;6.63;;;;;;;;;;5090040;28;20068;-65
2022/07/09 01:48:02;;;;;;;11.77;6.70;;;;;;;;;;5082294;28;20060;-65
2022/07/09 01:50:28;;;;;;;10.07;6.90;;;;;;;;;;5079688;28;20048;-65
2022/07/09 01:52:54;;;;;;;16.17;7.22;;;;;;;;;;5087101;28;20036;-65
2022/07/09 01:55:20;;;;;;;15.98;7.18;;;;;;;;;;5090241;28;20126;-65
2022/07/09 01:57:46;;;;;;;13.90;7.82;;;;;;;;;;5082519;28;20032;-65
2022/07/09 02:00:12;;;;;;;14.27;7.55;;;;;;;;;;5089768;28;20036;-65
2022/07/09 02:02:38;;;;;;;15.57;8.07;;;;;;;;;;5088590;28;20040;-65
2022/07/09 02:05:05;;;;;;;15.88;7.90;;;;;;;;;;5087906;28;20032;-65
2022/07/09 02:07:31;;;;;;;16.60;7.78;;;;;;;;;;5080113;28;20072;-65
2022/07/09 02:09:57;;;;;;;15.75;8.25;;;;;;;;;;5081930;28;20433;-65
2022/07/09 02:12:23;;;;;;;11.55;8.10;;;;;;;;;;5086464;28;20044;-64
2022/07/09 02:14:49;;;;;;;15.13;8.40;;;;;;;;;;5090471;28;20041;-65
2022/07/09 02:17:15;;;;;;;11.40;8.10;;;;;;;;;;5083370;28;20036;-65
2022/07/09 02:19:41;;;;;;;16.08;8.10;;;;;;;;;;5085356;28;20039;-65
2022/07/09 02:22:07;;;;;;;16.55;8.65;;;;;;;;;;5084038;28;20510;-65
2022/07/09 02:24:33;;;;;;;15.68;8.73;;;;;;;;;;5089419;28;20028;-65
2022/07/09 02:26:59;;;;;;;15.25;8.57;;;;;;;;;;5087488;28;20478;-65
2022/07/09 02:29:25;;;;;;;19.65;9.07;;;;;;;;;;5087566;28;20048;-64
2022/07/09 02:31:51;;;;;;;14.93;8.63;;;;;;;;;;5081311;28;20089;-64
2022/07/09 02:34:17;;;;;;;18.20;8.43;;;;;;;;;;5093453;28;20382;-65
2022/07/09 02:36:43;;;;;;;16.60;9.25;;;;;;;;;;5089070;28;20090;-65
2022/07/09 02:39:09;;;;;;;15.77;8.63;;;;;;;;;;5090270;28;20040;-65
2022/07/09 02:41:35;;;;;;;19.58;8.15;;;;;;;;;;5089905;28;20032;-65
2022/07/09 02:44:01;;;;;;;16.25;8.32;;;;;;;;;;5088530;28;20036;-65
2022/07/09 02:46:27;;;;;;;19.98;9.38;;;;;;;;;;5088051;28;20040;-65
2022/07/09 02:48:53;;;;;;;16.60;8.45;;;;;;;;;;5093397;28;20093;-65
2022/07/09 02:51:19;;;;;;;17.73;9.10;;;;;;;;;;5076208;28;20040;-65
2022/07/09 02:53:45;;;;;;;17.77;8.73;;;;;;;;;;5083174;28;20098;-65
2022/07/09 02:56:11;;;;;;;15.93;8.50;;;;;;;;;;5080734;28;20028;-65
2022/07/09 02:58:37;;;;;;;15.82;8.63;;;;;;;;;;5085361;28;20036;-65
2022/07/09 03:01:07;;;;;;;13.05;7.90;;;;;;;;;;5084730;28;20039;-65
2022/07/09 03:03:36;;;;;;;13.27;8.50;;;;;;;;;;5085306;28;20127;-65
2022/07/09 03:06:02;;;;;;;11.95;7.80;;;;;;;;;;5080544;28;20398;-65
2022/07/09 03:08:28;;;;;;;15.20;8.38;;;;;;;;;;5088450;28;20047;-65
2022/07/09 03:10:54;;;;;;;18.10;8.00;;;;;;;;;;5091284;28;20047;-65
2022/07/09 03:13:20;;;;;;;13.38;7.38;;;;;;;;;;5091277;28;20048;-65
2022/07/09 03:15:47;;;;;;;13.20;7.47;;;;;;;;;;5083298;28;20040;-65
2022/07/09 03:18:13;;;;;;;14.52;7.18;;;;;;;;;;5080537;28;20043;-65
2022/07/09 03:20:39;;;;;;;12.35;7.63;;;;;;;;;;5081356;28;20040;-65
2022/07/09 03:23:05;;;;;;;13.52;7.78;;;;;;;;;;5084161;28;20040;-65
2022/07/09 03:25:32;;;;;;;13.18;7.70;;;;;;;;;;5089203;28;20063;-65
2022/07/09 03:27:58;;;;;;;17.48;8.43;;;;;;;;;;5092593;28;20040;-65
2022/07/09 03:30:24;;;;;;;14.88;7.47;;;;;;;;;;5090647;28;20079;-65
2022/07/09 03:32:50;;;;;;;13.00;7.10;;;;;;;;;;5090526;28;20040;-64
2022/07/09 03:35:17;;;;;;;13.65;7.93;;;;;;;;;;5091224;28;20044;-66
2022/07/09 03:37:43;;;;;;;12.85;7.53;;;;;;;;;;5088254;28;20058;-66
2022/07/09 03:40:09;;;;;;;13.50;7.85;;;;;;;;;;5089465;28;20054;-66
2022/07/09 03:42:35;;;;;;;15.15;8.38;;;;;;;;;;5090674;28;20040;-66
2022/07/09 03:45:01;;;;;;;14.75;8.13;;;;;;;;;;5089751;28;20089;-63
2022/07/09 03:47:27;;;;;;;15.15;8.13;;;;;;;;;;5087551;28;20047;-63
2022/07/09 03:49:54;;;;;;;15.82;8.52;;;;;;;;;;5088705;28;20036;-63
2022/07/09 03:52:20;;;;;;;15.30;7.95;;;;;;;;;;5076004;28;20498;-63
2022/07/09 03:54:46;;;;;;;14.05;8.55;;;;;;;;;;5087739;28;20047;-63
2022/07/09 03:57:12;;;;;;;16.20;8.63;;;;;;;;;;5088838;28;20378;-63
2022/07/09 03:59:38;;;;;;;16.45;8.30;;;;;;;;;;5084900;28;20138;-63
2022/07/09 04:02:05;;;;;;;14.85;8.55;;;;;;;;;;5090469;28;20063;-63
2022/07/09 04:04:31;;;;;;;14.90;8.70;;;;;;;;;;5082892;28;20047;-63
2022/07/09 04:06:57;;;;;;;13.65;7.75;;;;;;;;;;5084055;28;20048;-63
2022/07/09 04:09:23;;;;;;;21.30;8.65;;;;;;;;;;5090059;28;20081;-64
2022/07/09 04:11:49;;;;;;;14.82;8.60;;;;;;;;;;5082115;28;20378;-63
2022/07/09 04:14:15;;;;;;;15.60;8.50;;;;;;;;;;5088020;28;20054;-63
2022/07/09 04:16:41;;;;;;;13.85;8.63;;;;;;;;;;5091823;28;20054;-63
2022/07/09 04:19:08;;;;;;;22.63;9.00;;;;;;;;;;5076104;28;20119;-63
2022/07/09 04:21:34;;;;;;;17.55;7.95;;;;;;;;;;5082429;28;20493;-63
2022/07/09 04:24:00;;;;;;;16.08;8.45;;;;;;;;;;5083903;28;20071;-64
2022/07/09 04:26:26;;;;;;;15.20;8.30;;;;;;;;;;5075773;28;20054;-64
2022/07/09 04:28:52;;;;;;;19.58;9.13;;;;;;;;;;5081878;28;20039;-64
2022/07/09 04:31:21;;;;;;;16.75;8.55;;;;;;;;;;5077690;28;20097;-64
2022/07/09 04:33:47;;;;;;;19.63;9.63;;;;;;;;;;5082761;28;20070;-64
2022/07/09 04:36:13;;;;;;;15.05;9.13;;;;;;;;;;5089497;28;20032;-64
2022/07/09 04:38:39;;;;;;;16.27;9.73;;;;;;;;;;5090374;28;20040;-64
2022/07/09 04:41:05;;;;;;;17.02;9.00;;;;;;;;;;5089304;28;20508;-64
2022/07/09 04:43:31;;;;;;;16.67;8.38;;;;;;;;;;5082730;28;20036;-64
2022/07/09 04:45:58;;;;;;;16.88;9.02;;;;;;;;;;5084493;28;20109;-64
2022/07/09 04:48:24;;;;;;;17.10;8.75;;;;;;;;;;5087146;28;20119;-64
2022/07/09 04:50:50;;;;;;;13.80;8.63;;;;;;;;;;5085212;28;20493;-64
2022/07/09 04:53:16;;;;;;;12.98;8.23;;;;;;;;;;5088938;28;20093;-64
2022/07/09 04:55:42;;;;;;;16.17;8.27;;;;;;;;;;5082693;28;20485;-65
2022/07/09 04:58:09;;;;;;;14.15;8.55;;;;;;;;;;5111849;22;20055;-63
2022/07/09 05:00:35;;;;;;;16.33;8.55;;;;;;;;;;5093341;28;20127;-62
2022/07/09 05:03:01;;;;;;;14.90;8.70;;;;;;;;;;5111653;28;20040;-63
2022/07/09 05:05:27;;;;;;;15.68;8.73;;;;;;;;;;5093280;28;20039;-63
2022/07/09 05:07:56;;;;;;;14.38;8.25;;;;;;;;;;5104353;28;20115;-63
2022/07/09 05:10:22;;;;;;;18.15;9.07;;;;;;;;;;5070427;28;20564;-64
2022/07/09 05:12:48;;;;;;;16.00;8.50;;;;;;;;;;5081178;28;20083;-64
2022/07/09 05:15:14;;;;;;;17.85;8.70;;;;;;;;;;5084080;28;20071;-64
2022/07/09 05:17:41;;;;;;;15.70;8.48;;;;;;;;;;5091879;28;20050;-64
2022/07/09 05:20:08;;;;;;;15.90;8.75;;;;;;;;;;5088105;28;20524;-64
2022/07/09 05:22:34;;;;;;;17.83;8.77;;;;;;;;;;5086903;28;20064;-64
2022/07/09 05:25:00;;;;;;;13.65;8.25;;;;;;;;;;5088052;28;20040;-65
2022/07/09 05:27:28;;;;;;;15.52;8.38;;;;;;;;;;5081268;28;20036;-64
2022/07/09 05:29:54;;;;;;;16.23;8.65;;;;;;;;;;5088282;28;20408;-64
2022/07/09 05:32:20;;;;;;;14.75;8.20;;;;;;;;;;5082762;28;20059;-64
2022/07/09 05:34:46;;;;;;;15.15;7.75;;;;;;;;;;5080171;28;20071;-64
2022/07/09 05:37:12;;;;;;;15.15;8.07;;;;;;;;;;5088510;28;20040;-64
2022/07/09 05:39:39;;;;;;;16.38;8.63;;;;;;;;;;5089886;28;20032;-64
2022/07/09 05:42:05;;;;;;;15.27;8.23;;;;;;;;;;5080812;28;20036;-64
2022/07/09 05:44:32;;;;;;;16.50;7.65;;;;;;;;;;5093104;28;20408;-64
2022/07/09 05:46:58;;;;;;;14.63;7.45;;;;;;;;;;5084381;28;20037;-64
2022/07/09 05:49:24;;;;;;;12.07;6.75;;;;;;;;;;5088781;28;20078;-64
2022/07/09 05:51:50;;;;;;;14.93;6.47;;;;;;;;;;5081802;28;20040;-64
2022/07/09 05:54:16;;;;;;;12.50;7.03;;;;;;;;;;5088826;28;20044;-64
2022/07/09 05:56:42;;;;;;;13.38;7.40;;;;;;;;;;5081476;28;20037;-64
2022/07/09 05:59:08;;;;;;;17.77;7.13;;;;;;;;;;5074328;28;20043;-64
2022/07/09 06:01:39;;;;;;;12.23;6.75;;;;;;;;;;5075870;28;20040;-64
2022/07/09 06:04:08;;;;;;;11.15;5.93;;;;;;;;;;5092890;28;20043;-64
2022/07/09 06:06:34;;;;;;;10.63;5.90;;;;;;;;;;5093462;28;20028;-64
2022/07/09 06:09:00;;;;;;;12.82;7.13;;;;;;;;;;5093222;28;20481;-64
2022/07/09 06:11:27;;;;;;;9.93;4.95;;;;;;;;;;5093624;28;20036;-64
2022/07/09 06:13:53;;;;;;;10.23;5.50;;;;;;;;;;5074653;28;20166;-64
2022/07/09 06:16:19;;;;;;;11.45;6.20;;;;;;;;;;5071777;28;20051;-64
2022/07/09 06:18:45;;;;;;;11.45;5.57;;;;;;;;;;5092954;28;20032;-64
2022/07/09 06:21:11;;;;;;;8.77;4.78;;;;;;;;;;5093501;28;20032;-64
2022/07/09 06:23:37;;;;;;;10.05;4.38;;;;;;;;;;5075083;28;20401;-64
2022/07/09 06:26:03;;;;;;;10.35;5.38;;;;;;;;;;5090148;28;20138;-64
2022/07/09 06:28:29;;;;;;;10.02;5.22;;;;;;;;;;5090235;28;20048;-64
2022/07/09 06:30:55;;;;;;;9.52;5.07;;;;;;;;;;5072922;28;20486;-64
2022/07/09 06:33:21;;;;;;;9.15;5.25;;;;;;;;;;5090954;28;20055;-64
2022/07/09 06:35:47;;;;;;;10.30;4.88;;;;;;;;;;5093766;28;20028;-64
2022/07/09 06:38:13;;;;;;;8.75;4.53;;;;;;;;;;5091603;28;20032;-64
2022/07/09 06:40:39;;;;;;;8.55;4.68;;;;;;;;;;5074245;28;20043;-64
2022/07/09 06:43:05;;;;;;;8.30;4.57;;;;;;;;;;5089950;28;20421;-64
2022/07/09 06:45:31;;;;;;;8.73;4.05;;;;;;;;;;5091780;28;20462;-64
2022/07/09 06:47:57;;;;;;;7.13;3.88;;;;;;;;;;5092678;28;20036;-64
2022/07/09 06:50:23;;;;;;;7.40;4.13;;;;;;;;;;5090655;28;20043;-64
2022/07/09 06:52:49;;;;;;;7.72;4.10;;;;;;;;;;5080098;28;20032;-64
2022/07/09 06:55:15;;;;;;;10.88;4.45;;;;;;;;;;5081930;28;20593;-64
2022/07/09 06:57:41;;;;;;;8.18;3.95;;;;;;;;;;5073647;28;20036;-64
2022/07/09 07:00:08;;;;;;;9.75;4.25;;;;;;;;;;5076970;28;20035;-64
2022/07/09 07:02:34;;;;;;;7.57;3.80;;;;;;;;;;5088967;28;20040;-64
2022/07/09 07:05:01;;;;;;;8.38;3.83;;;;;;;;;;5087931;28;20083;-64
2022/07/09 07:07:27;;;;;;;10.32;4.20;;;;;;;;;;5090730;28;20040;-64
2022/07/09 07:09:53;;;;;;;7.85;3.92;;;;;;;;;;5082994;28;20036;-64
2022/07/09 07:12:19;;;;;;;7.40;3.53;;;;;;;;;;5090325;28;20077;-64
2022/07/09 07:14:45;;;;;;;6.70;3.72;;;;;;;;;;5076120;28;20374;-64
2022/07/09 07:17:11;;;;;;;6.68;3.28;;;;;;;;;;5092540;28;20032;-64
2022/07/09 07:19:37;;;;;;;5.80;3.38;;;;;;;;;;5088821;28;20039;-64
2022/07/09 07:22:03;;;;;;;6.82;3.72;;;;;;;;;;5087957;28;20101;-64
2022/07/09 07:24:30;;;;;;;5.40;3.40;;;;;;;;;;5094683;28;20040;-65
2022/07/09 07:26:56;;;;;;;6.72;3.83;;;;;;;;;;5064562;28;20554;-64
2022/07/09 07:29:22;;;;;;;7.15;3.40;;;;;;;;;;5069816;28;20117;-64
2022/07/09 07:31:49;;;;;;;7.68;3.35;;;;;;;;;;5090904;28;20047;-64
2022/07/09 07:34:15;;;;;;;6.72;3.58;;;;;;;;;;5091943;28;20291;-63
2022/07/09 07:36:41;;;;;;;7.18;3.38;;;;;;;;;;5079746;28;20036;-63
2022/07/09 07:39:07;;;;;;;7.40;3.15;;;;;;;;;;5087418;28;20064;-64
2022/07/09 07:41:33;;;;;;;6.80;3.20;;;;;;;;;;5087572;28;20044;-63
2022/07/09 07:43:59;;;;;;;5.80;3.40;;;;;;;;;;5087415;28;20051;-64
2022/07/09 07:46:25;;;;;;;5.78;3.45;;;;;;;;;;5089431;28;20054;-64
2022/07/09 07:48:51;;;;;;;7.60;3.53;;;;;;;;;;5085395;28;20061;-64
2022/07/09 07:51:18;;;;;;;7.03;3.40;;;;;;;;;;5092237;28;20577;-65
2022/07/09 07:53:44;;;;;;;7.32;3.33;;;;;;;;;;5091135;28;20032;-64
2022/07/09 07:56:10;;;;;;;6.55;2.85;;;;;;;;;;5088948;28;20063;-64
2022/07/09 07:58:36;;;;;;;4.78;3.30;;;;;;;;;;5094467;28;20121;-64
2022/07/09 08:01:02;;;;;;;5.20;2.97;;;;;;;;;;5088182;28;20036;-64
2022/07/09 08:03:28;;;;;;;7.10;3.42;;;;;;;;;;5073994;28;20052;-64
2022/07/09 08:05:54;;;;;;;6.78;3.88;;;;;;;;;;5091282;28;20035;-64
2022/07/09 08:08:21;;;;;;;5.28;3.60;;;;;;;;;;5085840;28;20050;-64
2022/07/09 08:10:48;;;;;;;4.25;2.83;;;;;;;;;;5091924;28;20036;-64
2022/07/09 08:13:14;;;;;;;4.82;2.97;;;;;;;;;;5087241;28;20041;-64
2022/07/09 08:15:41;;;;;;;7.38;3.08;;;;;;;;;;5090679;28;20040;-64
2022/07/09 08:18:08;;;;;;;9.02;3.40;;;;;;;;;;5077988;28;20032;-64
2022/07/09 08:20:37;;;;;;;5.82;2.72;;;;;;;;;;5082385;28;20041;-64
2022/07/09 08:23:03;;;;;;;4.03;2.70;;;;;;;;;;5096902;28;20482;-64
2022/07/09 08:25:29;;;;;;;4.05;2.72;;;;;;;;;;5067187;28;20086;-64
2022/07/09 08:27:55;;;;;;;6.15;3.22;;;;;;;;;;5092055;28;20036;-65
2022/07/09 08:30:21;;;;;;;4.65;2.58;;;;;;;;;;5092892;28;20043;-64
2022/07/09 08:32:48;;;;;;;4.35;2.40;;;;;;;;;;5084537;28;20409;-64
2022/07/09 08:35:14;;;;;;;4.30;2.60;;;;;;;;;;5100187;28;20120;-64
2022/07/09 08:37:40;;;;;;;4.93;2.55;;;;;;;;;;5080793;28;20037;-64
2022/07/09 08:40:07;;;;;;;4.05;2.20;;;;;;;;;;5053628;28;20056;-64
2022/07/09 08:42:33;;;;;;;3.00;2.20;;;;;;;;;;5088680;28;20060;-64
2022/07/09 08:44:59;;;;;;;4.95;2.08;;;;;;;;;;5072013;28;20102;-64
2022/07/09 08:47:25;;;;;;;3.80;2.05;;;;;;;;;;5086075;28;20036;-64
2022/07/09 08:49:55;;;;;;;3.33;2.22;;;;;;;;;;5085590;28;20036;-64
2022/07/09 08:52:22;;;;;;;6.60;2.15;;;;;;;;;;5077849;28;20051;-64
2022/07/09 08:54:48;;;;;;;3.33;2.08;;;;;;;;;;5091338;28;20052;-64
2022/07/09 08:57:14;;;;;;;5.20;2.38;;;;;;;;;;5093359;28;20032;-65
2022/07/09 08:59:40;;;;;;;3.10;2.00;;;;;;;;;;5091361;28;20463;-64
2022/07/09 09:02:09;;;;;;;2.75;2.17;;;;;;;;;;5092079;28;20071;-64
2022/07/09 09:04:39;;;;;;;3.78;1.95;;;;;;;;;;5074293;28;20054;-64
2022/07/09 09:07:15;;;;;;;2.73;1.83;;;;;;;;;;5092308;28;20086;-64
2022/07/09 09:09:41;;;;;;;2.78;1.85;;;;;;;;;;5082855;28;20032;-64
2022/07/09 09:12:08;;;;;;;2.40;2.00;;;;;;;;;;5098182;28;20040;-64
2022/07/09 09:14:34;;;;;;;5.78;1.80;;;;;;;;;;5091301;28;20082;-64
2022/07/09 09:17:05;;;;;;;3.08;1.67;;;;;;;;;;5072917;28;20055;-64
2022/07/09 09:19:31;;;;;;;3.95;1.60;;;;;;;;;;5088571;28;20060;-64
2022/07/09 09:21:57;;;;;;;3.58;1.70;;;;;;;;;;5071826;28;20418;-65
2022/07/09 09:24:25;;;;;;;3.88;1.40;;;;;;;;;;5071365;28;20135;-64
2022/07/09 09:26:52;;;;;;;2.75;1.50;;;;;;;;;;5073782;28;20044;-64
2022/07/09 09:29:18;;;;;;;3.13;1.60;;;;;;;;;;5084957;28;20039;-64
2022/07/09 09:31:45;;;;;;;2.45;1.50;;;;;;;;;;5090527;28;20394;-64
2022/07/09 09:34:13;;;;;;;2.30;1.52;;;;;;;;;;5073185;28;20047;-65
2022/07/09 09:36:43;;;;;;;6.18;1.35;;;;;;;;;;5091339;28;20043;-65
2022/07/09 09:39:12;;;;;;;3.50;1.23;;;;;;;;;;5095074;28;20047;-65
2022/07/09 09:41:38;;;;;;;1.58;1.10;;;;;;;;;;5081722;28;20036;-64
2022/07/09 09:44:08;;;;;;;2.78;1.38;;;;;;;;;;5091276;28;20113;-64
2022/07/09 09:46:35;;;;;;;2.60;1.30;;;;;;;;;;5073335;28;20074;-64
2022/07/09 09:49:02;;;;;;;3.05;1.48;;;;;;;;;;5094183;28;20068;-64
2022/07/09 09:51:30;;;;;;;2.28;1.30;;;;;;;;;;5054595;28;20127;-64
2022/07/09 09:53:57;;;;;;;2.47;1.30;;;;;;;;;;5071216;28;20520;-64
2022/07/09 09:56:24;;;;;;;2.88;1.25;;;;;;;;;;5078969;28;20051;-64
2022/07/09 09:58:51;;;;;;;2.28;1.13;;;;;;;;;;5080750;28;20533;-64
2022/07/09 10:01:17;;;;;;;3.00;1.35;;;;;;;;;;5073162;28;20040;-65
2022/07/09 10:03:44;;;;;;;2.92;1.30;;;;;;;;;;5073446;28;20048;-65
2022/07/09 10:06:10;;;;;;;2.22;1.20;;;;;;;;;;5091182;28;20044;-64
2022/07/09 10:08:36;;;;;;;3.83;1.02;;;;;;;;;;5089627;28;20042;-64
2022/07/09 10:11:02;;;;;;;2.60;1.02;;;;;;;;;;5086520;28;20051;-65
2022/07/09 10:13:28;;;;;;;3.05;1.00;;;;;;;;;;5072585;28;20040;-64
2022/07/09 10:15:55;;;;;;;2.50;0.98;;;;;;;;;;5072891;28;20090;-64
2022/07/09 10:18:21;;;;;;;3.38;1.15;;;;;;;;;;5093126;28;20040;-64
2022/07/09 10:20:47;;;;;;;1.35;1.02;;;;;;;;;;5071568;28;20146;-65
2022/07/09 10:23:23;;;;;;;2.33;1.15;;;;;;;;;;5090960;28;20112;-65
2022/07/09 10:25:52;;;;;;;3.15;0.95;;;;;;;;;;5091057;28;20044;-64
2022/07/09 10:28:19;;;;;;;1.92;0.88;;;;;;;;;;5084274;28;20606;-65
2022/07/09 10:30:45;;;;;;;2.65;1.08;;;;;;;;;;5090470;28;20039;-65
2022/07/09 10:33:13;;;;;;;3.08;1.17;;;;;;;;;;5091201;28;20036;-64
2022/07/09 10:35:40;;;;;;;3.80;1.10;;;;;;;;;;5091006;28;20086;-64
2022/07/09 10:38:07;;;;;;;2.95;1.15;;;;;;;;;;5081650;28;20040;-64
2022/07/09 10:40:43;;;;;;;4.30;1.20;;;;;;;;;;5090067;28;20054;-64
2022/07/09 10:43:10;;;;;;;2.70;1.33;;;;;;;;;;5092720;28;20051;-64
2022/07/09 10:45:43;;;;;;;2.35;0.80;;;;;;;;;;5093077;28;20524;-64
2022/07/09 10:48:11;;;;;;;6.60;1.63;;;;;;;;;;5090919;28;20032;-65
2022/07/09 10:50:38;;;;;;;2.75;1.20;;;;;;;;;;5094154;28;20135;-64
2022/07/09 10:53:04;;;;;;;4.65;1.40;;;;;;;;;;5094435;28;20040;-64
2022/07/09 10:55:30;;;;;;;4.03;1.20;;;;;;;;;;5093739;28;20032;-64
2022/07/09 10:57:57;;;;;;;4.53;1.40;;;;;;;;;;5094969;28;20039;-64
2022/07/09 11:00:24;;;;;;;2.53;1.27;;;;;;;;;;5116972;22;20047;-64
2022/07/09 11:02:51;;;;;;;1.63;1.10;;;;;;;;;;5114404;28;20465;-64
2022/07/09 11:05:17;;;;;;;2.38;1.08;;;;;;;;;;5114077;28;20044;-64
2022/07/09 11:07:43;;;;;;;2.42;0.90;;;;;;;;;;5113397;28;20053;-64
2022/07/09 11:10:19;;;;;;;3.03;1.23;;;;;;;;;;5106004;28;20549;-64
2022/07/09 11:12:48;;;;;;;3.40;1.10;;;;;;;;;;5094104;28;20048;-64
2022/07/09 11:15:18;;;;;;;1.65;1.00;;;;;;;;;;5093858;28;20044;-64
2022/07/09 11:17:44;;;;;;;5.45;1.08;;;;;;;;;;5096682;28;20070;-64
2022/07/09 11:20:13;;;;;;;3.75;1.17;;;;;;;;;;5103097;28;20036;-64
2022/07/09 11:22:39;;;;;;;6.28;1.30;;;;;;;;;;5073576;28;20037;-64
2022/07/09 11:25:05;;;;;;;3.83;1.23;;;;;;;;;;5073859;28;20099;-64
2022/07/09 11:27:32;;;;;;;3.50;1.02;;;;;;;;;;5078344;28;20032;-64
2022/07/09 11:30:02;;;;;;;5.47;1.20;;;;;;;;;;5100040;28;20040;-64
2022/07/09 11:32:29;;;;;;;2.45;1.10;;;;;;;;;;5075089;28;20052;-64
2022/07/09 11:34:55;;;;;;;3.65;1.23;;;;;;;;;;5100047;28;20032;-64
2022/07/09 11:37:25;;;;;;;3.72;1.25;;;;;;;;;;5108990;28;20117;-64
2022/07/09 11:39:52;;;;;;;4.80;1.52;;;;;;;;;;5104897;28;20028;-64
2022/07/09 11:42:19;;;;;;;2.78;1.00;;;;;;;;;;5096070;28;20085;-64
2022/07/09 11:44:53;;;;;;;3.92;1.10;;;;;;;;;;5113373;28;20081;-64
2022/07/09 11:47:23;;;;;;;4.72;1.20;;;;;;;;;;5090416;28;20041;-64
2022/07/09 11:49:50;;;;;;;3.78;1.30;;;;;;;;;;5101609;28;20119;-64
2022/07/09 11:52:17;;;;;;;7.30;1.63;;;;;;;;;;5093588;28;20442;-64
2022/07/09 11:54:59;;;;;;;5.85;1.70;;;;;;;;;;5092159;28;20040;-64
2022/07/09 11:57:25;;;;;;;3.38;1.73;;;;;;;;;;5092245;28;20485;-64
2022/07/09 11:59:51;;;;;;;6.88;1.58;;;;;;;;;;5100964;28;20032;-64
2022/07/09 12:02:34;;;;;;;3.60;1.65;;;;;;;;;;5073561;28;20047;-63
2022/07/09 12:05:00;;;;;;;5.57;1.55;;;;;;;;;;5072823;28;20040;-64
2022/07/09 12:07:27;;;;;;;3.28;1.50;;;;;;;;;;5075464;28;20132;-64
2022/07/09 12:10:04;;;;;;;5.65;1.60;;;;;;;;;;5090329;28;20253;-64
2022/07/09 12:12:31;;;;;;;5.88;1.48;;;;;;;;;;5093042;28;20129;-64
2022/07/09 12:14:57;;;;;;;2.95;1.30;;;;;;;;;;5076108;28;20044;-64
2022/07/09 12:17:24;;;;;;;5.05;1.40;;;;;;;;;;5090970;28;20494;-64
2022/07/09 12:19:50;;;;;;;9.68;2.05;;;;;;;;;;5104234;28;20102;-64
2022/07/09 12:22:16;;;;;;;3.80;1.45;;;;;;;;;;5094536;28;20387;-64
2022/07/09 12:24:42;;;;;;;7.22;1.45;;;;;;;;;;5092553;28;20060;-65
2022/07/09 12:27:08;;;;;;;5.40;1.77;;;;;;;;;;5088692;28;20044;-64
2022/07/09 12:29:34;;;;;;;7.85;1.77;;;;;;;;;;5088959;28;20044;-64
2022/07/09 12:32:01;;;;;;;6.18;1.88;;;;;;;;;;5080201;28;20036;-64
2022/07/09 12:34:27;;;;;;;4.53;1.85;;;;;;;;;;5071329;28;20082;-64
2022/07/09 12:36:53;;;;;;;5.85;1.33;;;;;;;;;;5077919;28;20496;-64
2022/07/09 12:39:19;;;;;;;8.95;1.77;;;;;;;;;;5099205;28;20032;-64
2022/07/09 12:41:45;;;;;;;4.55;1.55;;;;;;;;;;5112686;28;20039;-63
2022/07/09 12:44:11;;;;;;;7.13;1.52;;;;;;;;;;5112947;28;20135;-63
2022/07/09 12:46:37;;;;;;;2.63;1.05;;;;;;;;;;5097544;28;20042;-64
2022/07/09 12:49:03;;;;;;;5.60;1.50;;;;;;;;;;5096609;28;20028;-64
2022/07/09 12:51:29;;;;;;;3.47;1.50;;;;;;;;;;5112113;28;20078;-64
2022/07/09 12:53:55;;;;;;;6.60;1.63;;;;;;;;;;5111272;28;20036;-64
2022/07/09 12:56:21;;;;;;;4.38;1.15;;;;;;;;;;5081015;28;20032;-64
2022/07/09 12:58:47;;;;;;;4.55;1.20;;;;;;;;;;5103815;28;20165;-64
2022/07/09 13:01:13;;;;;;;4.85;1.10;;;;;;;;;;5111848;28;20035;-64
2022/07/09 13:03:39;;;;;;;5.95;1.20;;;;;;;;;;5095953;28;20126;-63
2022/07/09 13:06:30;;;;;;;2.92;0.77;;;;;;;;;;5097385;28;20039;-64
2022/07/09 13:08:51;;;;;;;2.90;1.10;;;;;;;;;;5095561;28;20173;-64
2022/07/09 13:11:17;;;;;;;3.63;0.90;;;;;;;;;;5091711;28;20076;-64
2022/07/09 13:13:43;;;;;;;3.75;0.90;;;;;;;;;;5091925;28;20093;-64
2022/07/09 13:16:09;;;;;;;1.90;0.68;;;;;;;;;;5098387;28;20427;-64
2022/07/09 13:18:35;;;;;;;3.97;1.05;;;;;;;;;;5095243;28;20077;-63
2022/07/09 13:21:01;;;;;;;5.10;0.90;;;;;;;;;;5096290;28;20123;-63
2022/07/09 13:23:27;;;;;;;1.58;0.65;;;;;;;;;;5090828;28;20471;-63
2022/07/09 13:25:53;;;;;;;3.03;1.05;;;;;;;;;;5086060;28;20118;-64
2022/07/09 13:28:19;;;;;;;3.45;0.77;;;;;;;;;;5095742;28;20501;-64
2022/07/09 13:30:45;;;;;;;3.58;0.90;;;;;;;;;;5091219;28;20498;-64
2022/07/09 13:33:11;;;;;;;3.70;1.10;;;;;;;;;;5088665;28;20056;-64
2022/07/09 13:35:37;;;;;;;3.70;1.00;;;;;;;;;;5085524;28;20031;-63
2022/07/09 13:38:03;;;;;;;4.22;1.30;;;;;;;;;;5096497;28;20045;-65
2022/07/09 13:40:29;;;;;;;2.05;0.85;;;;;;;;;;5092406;28;20047;-64
2022/07/09 13:42:55;;;;;;;4.15;1.05;;;;;;;;;;5091691;28;20059;-64
2022/07/09 13:45:21;;;;;;;3.10;0.88;;;;;;;;;;5076424;28;20045;-64
2022/07/09 13:47:48;;;;;;;3.10;0.88;;;;;;;;;;5071073;28;20040;-64
2022/07/09 13:50:14;;;;;;;5.03;1.00;;;;;;;;;;5070364;28;20044;-64
2022/07/09 13:52:40;;;;;;;5.45;1.13;;;;;;;;;;5086530;28;20122;-64
2022/07/09 13:55:06;;;;;;;3.10;0.88;;;;;;;;;;5087186;28;20059;-64
2022/07/09 13:57:32;;;;;;;3.60;1.13;;;;;;;;;;5070617;28;20049;-64
2022/07/09 13:59:58;;;;;;;2.92;0.80;;;;;;;;;;5070867;28;20036;-64
2022/07/09 14:02:25;;;;;;;4.28;1.00;;;;;;;;;;5070570;28;20418;-64
2022/07/09 14:04:51;;;;;;;4.60;1.00;;;;;;;;;;5089631;28;20516;-64
2022/07/09 14:07:17;;;;;;;5.45;1.00;;;;;;;;;;5088696;28;20040;-64
2022/07/09 14:09:43;;;;;;;5.55;1.30;;;;;;;;;;5080684;28;20066;-64
2022/07/09 14:12:10;;;;;;;5.03;0.90;;;;;;;;;;5091400;28;20040;-64
2022/07/09 14:14:36;;;;;;;2.38;0.90;;;;;;;;;;5078643;28;20459;-64
2022/07/09 14:17:02;;;;;;;3.08;1.20;;;;;;;;;;5085864;28;20531;-64
2022/07/09 14:19:28;;;;;;;5.82;1.40;;;;;;;;;;5100136;28;20480;-64
2022/07/09 14:21:54;;;;;;;2.45;0.82;;;;;;;;;;5092935;28;20036;-63
2022/07/09 14:24:20;;;;;;;4.78;0.90;;;;;;;;;;5097917;28;20056;-63
2022/07/09 14:26:47;;;;;;;3.13;1.10;;;;;;;;;;5088884;28;20119;-64
2022/07/09 14:29:14;;;;;;;4.15;1.08;;;;;;;;;;5085097;28;20036;-62
2022/07/09 14:31:40;;;;;;;5.95;1.10;;;;;;;;;;5092357;28;20122;-62
2022/07/09 14:34:06;;;;;;;3.58;0.90;;;;;;;;;;5098913;28;20131;-62